Time;durP1;ratioP1;P1;durP2;ratioP2;P2;SDS_P1;SDS_P2;PMS_P1;PMS_P2;Temp;Humidity;BMP_temperature;BMP_pressure;BME280_temperature;BME280_humidity;BME280_pressure;Samples;Min_cycle;Max_cycle;Signal;HPM_P1;HPM_P2
2023/01/03 19:27:12;;;;;;;;;;;;;;;5.28;75.98;99438.41;5414747;23;19988;-65
2023/01/03 19:29:37;;;;;;;;;;;;;;;5.20;75.42;99440.38;4877023;29;19924;-64
2023/01/03 19:32:03;;;;;;;;;;;;;;;5.20;76.95;99437.78;4871286;29;19926;-65
2023/01/03 19:34:28;;;;;;;;;;;;;;;5.17;76.98;99440.44;4873374;29;20011;-64
2023/01/03 19:36:54;;;;;;;;;;;;;;;5.18;76.72;99432.59;4877992;29;20018;-65
2023/01/03 19:39:19;;;;;;;;;;;;;;;5.16;76.67;99436.13;4877968;29;19949;-66
2023/01/03 19:44:31;;;;;;;;;;;;;;;5.16;77.94;99430.91;4872131;29;20299;-64
2023/01/03 19:46:56;;;;;;;;;;;;;;;5.16;77.95;99429.19;4877241;29;19916;-65
2023/01/03 19:49:21;;;;;;;;;;;;;;;5.14;77.97;99440.53;4875607;29;19976;-65
2023/01/03 19:51:47;;;;;;;;;;;;;;;5.17;78.52;99441.31;4875674;29;20372;-65
2023/01/03 19:54:12;;;;;;;;;;;;;;;5.19;77.67;99430.84;4868791;29;20416;-65
2023/01/03 19:56:37;;;;;;;;;;;;;;;5.17;78.33;99435.25;4873813;29;19931;-66
2023/01/03 19:59:02;;;;;;;;;;;;;;;5.14;78.20;99440.53;4873788;29;19920;-64
2023/01/03 20:01:28;;;;;;;;;;;;;;;5.15;78.40;99444.81;4875382;29;20018;-65
2023/01/03 20:03:53;;;;;;;;;;;;;;;5.16;78.25;99439.59;4865592;29;20394;-64
2023/01/03 20:06:18;;;;;;;;;;;;;;;5.17;78.06;99445.66;4874019;29;20394;-65
2023/01/03 20:08:44;;;;;;;;;;;;;;;5.21;78.36;99442.06;4870911;29;20031;-64
2023/01/03 20:11:13;;;;;;;;;;;;;;;5.20;78.58;99440.38;4874852;29;20550;-65
2023/01/03 20:13:39;;;;;;;;;;;;;;;5.20;78.47;99440.38;4872215;29;19923;-65
2023/01/03 20:16:04;;;;;;;;;;;;;;;5.17;78.52;99430.06;4877050;29;20300;-65
2023/01/03 20:18:35;;;;;;;;;;;;;;;5.20;79.12;99436.03;4878353;29;19939;-65
2023/01/03 20:21:10;;;;;;;;;;;;;;;5.23;78.99;99438.53;4859981;29;19976;-65
2023/01/03 20:23:35;;;;;;;;;;;;;;;5.22;78.29;99439.41;4872942;29;19930;-65
2023/01/03 20:26:01;;;;;;;;;;;;;;;5.24;78.74;99434.19;4875122;29;19920;-66
2023/01/03 20:28:29;;;;;;;;;;;;;;;5.24;78.95;99440.25;4876861;29;20319;-64
2023/01/03 20:30:58;;;;;;;;;;;;;;;5.26;78.72;99439.34;4878103;29;19916;-65
2023/01/03 20:33:23;;;;;;;;;;;;;;;5.24;78.49;99437.63;4875392;29;19919;-65
2023/01/03 20:35:52;;;;;;;;;;;;;;;5.23;78.61;99427.28;4871807;29;19927;-65
2023/01/03 20:38:23;;;;;;;;;;;;;;;5.24;78.49;99435.03;4876315;29;19927;-65
2023/01/03 20:40:48;;;;;;;;;;;;;;;5.24;78.64;99422.03;4871882;29;19924;-65
2023/01/03 20:43:16;;;;;;;;;;;;;;;5.23;78.53;99424.69;4876616;29;19928;-66
2023/01/03 20:45:41;;;;;;;;;;;;;;;5.23;78.95;99425.53;4873143;29;19927;-64
2023/01/03 20:48:09;;;;;;;;;;;;;;;5.26;78.82;99410.72;4875234;29;19924;-65
2023/01/03 20:50:34;;;;;;;;;;;;;;;5.26;79.17;99418.53;4875287;29;19928;-65
2023/01/03 20:52:59;;;;;;;;;;;;;;;5.22;78.05;99412.56;4874812;29;19924;-64
2023/01/03 20:55:25;;;;;;;;;;;;;;;5.24;78.88;99410.78;4876730;29;19998;-64
2023/01/03 20:57:51;;;;;;;;;;;;;;;5.21;78.40;99416.06;4872619;29;20018;-66
2023/01/03 21:00:23;;;;;;;;;;;;;;;5.21;78.57;99414.31;4877634;29;19927;-65
2023/01/03 21:02:49;;;;;;;;;;;;;;;5.21;78.93;99416.91;4875327;29;19920;-64
2023/01/03 21:05:14;;;;;;;;;;;;;;;5.23;79.01;99414.28;4879619;29;19926;-65
2023/01/03 21:10:24;;;;;;;;;;;;;;;5.23;78.71;99414.28;4881449;29;19997;-66
2023/01/03 21:12:49;;;;;;;;;;;;;;;5.23;79.17;99414.28;4877158;29;19920;-65
2023/01/03 21:15:14;;;;;;;;;;;;;;;5.23;79.05;99416.88;4875350;29;20402;-64
2023/01/03 21:17:40;;;;;;;;;;;;;;;5.22;79.03;99420.34;4875297;29;20308;-66
2023/01/03 21:20:07;;;;;;;;;;;;;;;5.38;80.97;99411.25;4880335;29;20284;-64
2023/01/03 21:22:34;;;;;;;;;;;;;;;5.61;85.39;99414.91;4877408;29;19927;-65
2023/01/03 21:25:00;;;;;;;;;;;;;;;5.86;86.74;99405.50;4880471;29;19920;-64
2023/01/03 21:27:26;;;;;;;;;;;;;;;6.25;91.65;99407.78;4881383;29;19928;-64
2023/01/03 21:29:51;;;;;;;;;;;;;;;6.42;91.14;99408.09;4880226;29;20428;-63
